createdAt,value
2024-03-08T00:00:15.285Z,53.30
2024-03-08T00:02:44.326Z,49.97
2024-03-08T00:05:12.540Z,49.30
2024-03-08T00:07:41.312Z,55.10
2024-03-08T00:10:12.940Z,49.42
2024-03-08T00:12:47.853Z,51.08
2024-03-08T00:17:46.224Z,46.45
2024-03-08T00:20:14.842Z,47.33
2024-03-08T00:22:42.607Z,49.72
2024-03-08T00:25:10.569Z,49.80
2024-03-08T00:27:39.531Z,46.13
2024-03-08T00:30:08.049Z,41.97
2024-03-08T00:32:35.899Z,52.90
2024-03-08T00:35:03.680Z,54.60
2024-03-08T00:37:31.026Z,52.97
2024-03-08T00:39:58.235Z,52.45
2024-03-08T00:42:25.801Z,53.25
2024-03-08T00:44:53.441Z,47.00
2024-03-08T00:47:20.859Z,47.50
2024-03-08T00:49:48.350Z,44.05
2024-03-08T00:52:15.924Z,44.95
2024-03-08T00:54:44.933Z,62.40
2024-03-08T00:57:13.405Z,43.05
2024-03-08T00:59:41.045Z,55.90
2024-03-08T01:02:10.072Z,48.30
2024-03-08T01:04:37.359Z,50.47
2024-03-08T01:07:04.651Z,48.97
2024-03-08T01:09:31.913Z,51.97
2024-03-08T01:11:59.251Z,46.22
2024-03-08T01:14:32.941Z,56.63
2024-03-08T01:17:00.596Z,52.30
2024-03-08T01:19:28.034Z,51.70
2024-03-08T01:21:57.895Z,52.58
2024-03-08T01:24:26.315Z,53.63
2024-03-08T01:26:53.694Z,49.40
2024-03-08T01:29:20.985Z,48.22
2024-03-08T01:31:48.201Z,54.30
2024-03-08T01:34:15.445Z,49.22
2024-03-08T01:36:42.632Z,55.13
2024-03-08T01:39:10.781Z,42.97
2024-03-08T01:41:38.439Z,53.03
2024-03-08T01:44:08.378Z,51.75
2024-03-08T01:46:36.291Z,50.78
2024-03-08T01:49:04.358Z,50.00
2024-03-08T01:51:32.535Z,53.35
2024-03-08T01:54:03.906Z,52.80
2024-03-08T01:56:33.052Z,47.35
2024-03-08T01:59:02.009Z,44.45
2024-03-08T02:01:30.031Z,48.28
2024-03-08T02:03:57.426Z,47.67
2024-03-08T02:06:24.788Z,48.42
2024-03-08T02:08:52.409Z,48.50
2024-03-08T02:11:22.375Z,50.42
2024-03-08T02:13:49.669Z,43.67
2024-03-08T02:16:22.782Z,50.80
2024-03-08T02:18:50.186Z,40.13
2024-03-08T02:21:22.389Z,42.13
2024-03-08T02:23:50.161Z,42.88
2024-03-08T02:26:17.422Z,44.22
2024-03-08T02:28:46.053Z,44.50
2024-03-08T02:31:13.612Z,47.22
2024-03-08T02:33:41.055Z,47.67
2024-03-08T02:36:08.771Z,44.28
2024-03-08T02:38:36.194Z,42.40
2024-03-08T02:41:05.133Z,45.35
2024-03-08T02:43:32.553Z,44.03
2024-03-08T02:46:01.002Z,45.80
2024-03-08T02:48:28.535Z,50.03
2024-03-08T02:50:55.908Z,45.55
2024-03-08T02:53:23.787Z,40.05
2024-03-08T02:55:51.247Z,40.67
2024-03-08T02:58:19.725Z,45.38
2024-03-08T03:00:47.062Z,42.92
2024-03-08T03:03:14.354Z,34.05
2024-03-08T03:05:46.067Z,44.47
2024-03-08T03:08:18.217Z,43.83
2024-03-08T03:10:45.987Z,40.95
2024-03-08T03:13:13.577Z,40.65
2024-03-08T03:15:43.210Z,38.60
2024-03-08T03:18:10.985Z,42.03
2024-03-08T03:20:44.764Z,43.05
2024-03-08T03:23:15.544Z,44.42
2024-03-08T03:25:43.440Z,49.35
2024-03-08T03:28:12.580Z,41.33
2024-03-08T03:30:40.631Z,44.40
2024-03-08T03:33:09.095Z,44.67
2024-03-08T03:35:38.046Z,37.97
2024-03-08T03:38:10.186Z,42.72
2024-03-08T03:40:40.391Z,48.83
2024-03-08T03:43:08.821Z,40.65
2024-03-08T03:45:37.736Z,43.75
2024-03-08T03:48:11.515Z,46.30
2024-03-08T03:50:40.275Z,41.00
2024-03-08T03:53:09.077Z,48.20
2024-03-08T03:55:38.176Z,45.38
2024-03-08T03:58:05.946Z,39.63
2024-03-08T04:00:34.060Z,44.53
2024-03-08T04:03:02.311Z,42.70
2024-03-08T04:05:30.057Z,42.03
2024-03-08T04:07:58.189Z,41.65
2024-03-08T04:10:25.732Z,44.42
2024-03-08T04:12:53.713Z,46.53
2024-03-08T04:15:21.950Z,49.30
2024-03-08T04:17:49.361Z,41.72
2024-03-08T04:20:18.964Z,42.45
2024-03-08T04:22:50.865Z,41.75
2024-03-08T04:25:18.689Z,44.53
2024-03-08T04:27:46.753Z,37.30
2024-03-08T04:30:14.425Z,41.30
2024-03-08T04:32:42.972Z,45.15
2024-03-08T04:35:10.481Z,45.17
2024-03-08T04:37:37.845Z,47.42
2024-03-08T04:40:06.138Z,47.45
2024-03-08T04:42:34.327Z,48.03
2024-03-08T04:45:01.933Z,40.78
2024-03-08T04:47:29.708Z,46.35
2024-03-08T04:49:57.956Z,42.65
2024-03-08T04:52:25.314Z,44.70
2024-03-08T04:54:52.559Z,47.50
2024-03-08T04:57:20.398Z,44.88
2024-03-08T04:59:48.091Z,43.00
2024-03-08T05:02:15.740Z,47.15
2024-03-08T05:04:44.077Z,41.28
2024-03-08T05:07:11.655Z,36.60
2024-03-08T05:09:39.322Z,49.30
2024-03-08T05:12:07.311Z,39.55
2024-03-08T05:14:36.288Z,46.28
2024-03-08T05:17:03.734Z,38.97
2024-03-08T05:19:35.447Z,39.42
2024-03-08T05:22:03.104Z,44.00
2024-03-08T05:24:31.424Z,42.42
2024-03-08T05:27:01.475Z,40.47
2024-03-08T05:29:30.194Z,40.50
2024-03-08T05:31:59.483Z,37.22
2024-03-08T05:34:29.705Z,41.20
2024-03-08T05:36:57.303Z,42.58
2024-03-08T05:39:24.859Z,44.45
2024-03-08T05:41:52.418Z,42.70
2024-03-08T05:44:19.920Z,42.30
2024-03-08T05:46:49.936Z,43.70
2024-03-08T05:49:17.385Z,42.15
2024-03-08T05:51:44.714Z,50.00
2024-03-08T05:54:15.443Z,41.15
2024-03-08T05:56:45.800Z,46.80
2024-03-08T05:59:14.685Z,43.17
2024-03-08T06:01:43.201Z,51.92
2024-03-08T06:04:12.948Z,44.75
2024-03-08T06:06:41.433Z,45.95
2024-03-08T06:09:19.167Z,52.55
2024-03-08T06:11:46.811Z,46.38
2024-03-08T06:14:14.334Z,43.20
2024-03-08T06:16:41.628Z,49.97
2024-03-08T06:19:09.262Z,56.17
2024-03-08T06:21:36.599Z,59.40
2024-03-08T06:24:05.332Z,57.15
2024-03-08T06:26:54.761Z,42.53
2024-03-08T06:29:21.972Z,58.67
2024-03-08T06:31:49.188Z,49.38
2024-03-08T06:34:16.747Z,50.92
2024-03-08T06:36:44.598Z,50.03
2024-03-08T06:39:11.869Z,48.42
2024-03-08T06:41:39.462Z,65.45
2024-03-08T06:44:09.326Z,58.78
2024-03-08T06:46:36.967Z,63.63
2024-03-08T06:49:04.618Z,55.58
2024-03-08T06:51:31.974Z,59.38
2024-03-08T06:53:59.253Z,54.83
2024-03-08T06:56:26.813Z,52.92
2024-03-08T06:58:54.062Z,53.00
2024-03-08T07:01:22.534Z,58.60
2024-03-08T07:03:49.830Z,49.83
2024-03-08T07:06:20.294Z,50.72
2024-03-08T07:08:47.808Z,51.17
2024-03-08T07:11:17.274Z,53.83
2024-03-08T07:13:44.566Z,56.67
2024-03-08T07:16:13.136Z,62.67
2024-03-08T07:18:44.907Z,53.30
2024-03-08T07:21:12.737Z,63.17
2024-03-08T07:24:04.570Z,57.40
2024-03-08T07:26:32.860Z,55.72
2024-03-08T07:29:01.816Z,49.17
2024-03-08T07:31:47.896Z,52.63
2024-03-08T07:34:15.159Z,48.00
2024-03-08T07:36:42.460Z,52.22
2024-03-08T07:39:16.056Z,46.70
2024-03-08T07:41:43.436Z,53.58
2024-03-08T07:44:10.879Z,51.10
2024-03-08T07:46:38.403Z,52.67
2024-03-08T07:49:05.857Z,44.25
2024-03-08T07:51:33.269Z,50.28
2024-03-08T07:54:01.454Z,50.70
2024-03-08T07:56:28.705Z,54.67
2024-03-08T07:58:56.100Z,53.78
2024-03-08T08:01:23.694Z,50.10
2024-03-08T08:03:51.061Z,53.58
2024-03-08T08:06:18.353Z,53.95
2024-03-08T08:08:46.040Z,58.88
2024-03-08T08:11:13.512Z,47.78
2024-03-08T08:13:40.983Z,49.22
2024-03-08T08:16:08.761Z,47.75
2024-03-08T08:18:37.260Z,51.55
2024-03-08T08:21:07.356Z,50.72
2024-03-08T08:23:34.688Z,47.97
2024-03-08T08:26:04.814Z,59.33
2024-03-08T08:28:32.408Z,60.10
2024-03-08T08:31:00.891Z,56.33
2024-03-08T08:33:28.214Z,48.65
2024-03-08T08:35:55.890Z,54.83
2024-03-08T08:38:24.471Z,58.30
2024-03-08T08:40:51.871Z,50.90
2024-03-08T08:43:20.840Z,49.15
2024-03-08T08:45:51.286Z,55.78
2024-03-08T08:48:18.614Z,47.70
2024-03-08T08:50:46.302Z,52.92
2024-03-08T08:53:13.743Z,51.15
2024-03-08T08:55:42.001Z,48.47
2024-03-08T08:58:09.292Z,48.75
2024-03-08T09:00:36.616Z,55.20
2024-03-08T09:03:04.130Z,52.38
2024-03-08T09:05:31.379Z,62.15
2024-03-08T09:07:58.886Z,67.38
2024-03-08T09:12:56.779Z,57.33
2024-03-08T09:15:24.069Z,56.17
2024-03-08T09:17:52.253Z,51.40
2024-03-08T09:20:20.020Z,50.25
2024-03-08T09:22:47.800Z,59.55
2024-03-08T09:25:15.514Z,44.10
2024-03-08T09:27:42.840Z,48.70
2024-03-08T09:30:10.651Z,47.10
2024-03-08T09:32:38.594Z,48.58
2024-03-08T09:35:09.472Z,50.33
2024-03-08T09:37:37.511Z,42.95
2024-03-08T09:40:10.895Z,45.60
2024-03-08T09:42:38.904Z,52.08
2024-03-08T09:45:13.331Z,49.53
2024-03-08T09:47:42.422Z,41.47
2024-03-08T09:50:10.542Z,33.53
2024-03-08T09:52:38.714Z,45.45
2024-03-08T09:55:12.688Z,40.00
2024-03-08T09:57:41.354Z,41.42
2024-03-08T10:00:20.003Z,45.28
2024-03-08T10:02:47.614Z,36.78
2024-03-08T10:05:15.395Z,39.20
2024-03-08T10:07:42.779Z,44.95
2024-03-08T10:10:13.383Z,46.70
2024-03-08T10:12:40.835Z,40.97
2024-03-08T10:15:09.653Z,36.13
2024-03-08T10:17:37.090Z,45.22
2024-03-08T10:20:06.071Z,37.00
2024-03-08T10:22:33.422Z,41.22
2024-03-08T10:25:02.051Z,36.97
2024-03-08T10:27:29.621Z,36.80
2024-03-08T10:29:56.889Z,37.90
2024-03-08T10:32:25.516Z,39.22
2024-03-08T10:34:53.296Z,40.58
2024-03-08T10:37:26.238Z,40.83
2024-03-08T10:40:11.874Z,39.50
2024-03-08T10:42:53.725Z,38.03
2024-03-08T10:45:37.835Z,38.20
2024-03-08T10:48:37.002Z,32.15
2024-03-08T10:51:08.810Z,44.90
2024-03-08T10:53:38.589Z,38.88
2024-03-08T10:56:06.252Z,39.80
2024-03-08T10:58:35.837Z,35.03
2024-03-08T11:01:03.834Z,33.60
2024-03-08T11:03:46.557Z,34.63
2024-03-08T11:06:19.212Z,31.42
2024-03-08T11:08:47.850Z,24.17
2024-03-08T11:11:34.603Z,34.47
2024-03-08T11:14:04.152Z,41.42
2024-03-08T11:16:34.401Z,40.95
2024-03-08T11:19:07.054Z,34.53
2024-03-08T11:21:34.909Z,31.50
2024-03-08T11:24:02.670Z,40.65
2024-03-08T11:26:32.420Z,34.72
2024-03-08T11:29:36.612Z,30.05
2024-03-08T11:32:16.682Z,33.78
2024-03-08T11:34:50.731Z,33.03
2024-03-08T11:37:19.997Z,40.58
2024-03-08T11:39:52.053Z,38.55
2024-03-08T11:42:20.853Z,31.92
2024-03-08T11:44:49.572Z,34.60
2024-03-08T11:47:18.025Z,33.80
2024-03-08T11:49:47.129Z,30.00
2024-03-08T11:52:19.224Z,31.52
2024-03-08T11:54:59.053Z,29.90
2024-03-08T11:57:27.710Z,38.25
2024-03-08T11:59:58.167Z,32.55
2024-03-08T12:02:27.100Z,39.60
2024-03-08T12:04:59.245Z,37.75
2024-03-08T12:07:26.987Z,32.03
2024-03-08T12:10:18.628Z,36.92
2024-03-08T12:12:53.669Z,27.20
2024-03-08T12:15:22.866Z,28.05
2024-03-08T12:17:52.151Z,35.30
2024-03-08T12:20:30.587Z,32.95
2024-03-08T12:22:59.128Z,36.05
2024-03-08T12:25:33.410Z,37.97
2024-03-08T12:31:11.498Z,36.13
2024-03-08T12:33:58.085Z,36.60
2024-03-08T12:36:25.958Z,31.92
2024-03-08T12:38:55.673Z,36.17
2024-03-08T12:41:22.947Z,42.83
2024-03-08T12:43:50.895Z,37.28
2024-03-08T12:46:27.787Z,39.05
2024-03-08T12:48:55.884Z,39.83
2024-03-08T12:51:23.300Z,41.75
2024-03-08T12:53:56.959Z,41.40
2024-03-08T12:56:35.181Z,42.03
2024-03-08T12:59:04.138Z,38.75
2024-03-08T13:01:33.513Z,34.95
2024-03-08T13:04:04.694Z,35.55
2024-03-08T13:06:32.195Z,40.30
2024-03-08T13:08:59.515Z,48.50
2024-03-08T13:11:27.034Z,38.90
2024-03-08T13:13:54.714Z,39.63
2024-03-08T13:16:22.239Z,40.15
2024-03-08T13:18:54.541Z,44.33
2024-03-08T13:21:25.299Z,36.20
2024-03-08T13:23:54.523Z,39.25
2024-03-08T13:26:22.130Z,35.53
2024-03-08T13:28:54.752Z,34.33
2024-03-08T13:31:22.785Z,34.28
2024-03-08T13:33:52.479Z,35.25
2024-03-08T13:36:22.294Z,33.35
2024-03-08T13:38:50.074Z,32.70
2024-03-08T13:41:18.444Z,33.30
2024-03-08T13:43:51.147Z,42.60
2024-03-08T13:46:19.028Z,37.53
2024-03-08T13:48:46.315Z,34.53
2024-03-08T13:51:16.816Z,32.08
2024-03-08T13:53:44.196Z,31.38
2024-03-08T13:56:11.985Z,40.28
2024-03-08T13:58:42.020Z,49.67
2024-03-08T14:01:13.327Z,37.13
2024-03-08T14:03:43.718Z,48.60
2024-03-08T14:08:54.701Z,39.50
2024-03-08T14:11:22.202Z,40.03
2024-03-08T14:13:49.776Z,35.13
2024-03-08T14:16:17.147Z,29.63
2024-03-08T14:18:44.495Z,37.22
2024-03-08T14:21:12.290Z,38.00
2024-03-08T14:23:44.177Z,44.67
2024-03-08T14:26:12.632Z,43.03
2024-03-08T14:28:40.235Z,41.03
2024-03-08T14:31:12.414Z,37.10
2024-03-08T14:33:40.177Z,43.05
2024-03-08T14:36:07.677Z,38.22
2024-03-08T14:38:36.154Z,40.10
2024-03-08T14:41:07.246Z,42.13
2024-03-08T14:43:34.671Z,40.45
2024-03-08T14:46:02.123Z,42.85
2024-03-08T14:48:29.497Z,45.88
2024-03-08T14:50:56.821Z,53.50
2024-03-08T14:53:25.452Z,42.92
2024-03-08T14:55:52.882Z,42.83
2024-03-08T14:58:22.493Z,40.90
2024-03-08T15:00:51.226Z,42.50
2024-03-08T15:03:21.275Z,44.42
2024-03-08T15:05:49.986Z,40.75
2024-03-08T15:08:24.408Z,42.58
2024-03-08T15:10:55.964Z,42.75
2024-03-08T15:13:25.476Z,37.47
2024-03-08T15:15:59.119Z,49.15
2024-03-08T15:18:29.435Z,45.30
2024-03-08T15:20:56.790Z,50.97
2024-03-08T15:23:24.078Z,41.80
2024-03-08T15:25:51.425Z,49.22
2024-03-08T15:28:21.836Z,47.92
2024-03-08T15:30:55.347Z,43.45
2024-03-08T15:33:28.624Z,37.38
2024-03-08T15:36:00.265Z,37.40
2024-03-08T15:38:30.594Z,43.50
2024-03-08T15:40:57.990Z,35.42
2024-03-08T15:43:26.693Z,47.33
2024-03-08T15:45:56.069Z,41.85
2024-03-08T15:48:23.459Z,49.85
2024-03-08T15:50:52.066Z,50.65
2024-03-08T15:53:20.153Z,41.90
2024-03-08T15:55:48.489Z,45.42
2024-03-08T15:58:16.271Z,41.33
2024-03-08T16:00:49.227Z,45.65
2024-03-08T16:03:17.064Z,40.22
2024-03-08T16:05:45.782Z,43.22
2024-03-08T16:08:17.072Z,45.95
2024-03-08T16:10:48.219Z,38.70
2024-03-08T16:13:17.344Z,33.63
2024-03-08T16:15:50.721Z,50.55
2024-03-08T16:18:23.014Z,49.85
2024-03-08T16:20:54.940Z,44.20
2024-03-08T16:23:24.095Z,50.85
2024-03-08T16:25:51.990Z,51.78
2024-03-08T16:28:19.835Z,42.47
2024-03-08T16:30:50.363Z,40.72
2024-03-08T16:33:19.681Z,41.05
2024-03-08T16:35:47.849Z,38.33
2024-03-08T16:38:16.215Z,37.38
2024-03-08T16:40:44.899Z,46.40
2024-03-08T16:43:12.632Z,46.72
2024-03-08T16:45:40.554Z,39.53
2024-03-08T16:48:08.950Z,43.53
2024-03-08T16:50:36.538Z,37.88
2024-03-08T16:53:07.507Z,36.25
2024-03-08T16:55:35.813Z,45.92
2024-03-08T16:58:05.568Z,51.25
2024-03-08T17:00:33.633Z,45.47
2024-03-08T17:03:03.071Z,42.10
2024-03-08T17:05:31.607Z,45.72
2024-03-08T17:08:02.163Z,43.30
2024-03-08T17:10:30.480Z,41.20
2024-03-08T17:12:59.938Z,35.88
2024-03-08T17:15:28.886Z,36.13
2024-03-08T17:18:00.532Z,44.65
2024-03-08T17:20:29.131Z,41.47
2024-03-08T17:23:01.023Z,41.88
2024-03-08T17:25:30.990Z,38.53
2024-03-08T17:28:00.861Z,39.75
2024-03-08T17:30:33.438Z,46.60
2024-03-08T17:33:07.876Z,45.90
2024-03-08T17:35:35.643Z,38.05
2024-03-08T17:38:11.535Z,49.10
2024-03-08T17:40:42.690Z,43.55
2024-03-08T17:43:14.874Z,42.75
2024-03-08T17:45:47.459Z,40.40
2024-03-08T17:48:17.419Z,44.10
2024-03-08T17:50:50.891Z,38.70
2024-03-08T17:53:20.155Z,45.63
2024-03-08T17:55:51.382Z,33.65
2024-03-08T17:58:19.814Z,34.92
2024-03-08T18:00:47.503Z,35.28
2024-03-08T18:03:16.698Z,28.85
2024-03-08T18:05:46.697Z,42.50
2024-03-08T18:08:14.920Z,34.55
2024-03-08T18:10:43.371Z,34.72
2024-03-08T18:13:15.169Z,35.63
2024-03-08T18:15:48.134Z,45.28
2024-03-08T18:18:16.490Z,34.03
2024-03-08T18:20:49.134Z,36.38
2024-03-08T18:23:18.643Z,39.95
2024-03-08T18:25:46.900Z,40.58
2024-03-08T18:28:18.513Z,40.80
2024-03-08T18:30:49.957Z,43.55
2024-03-08T18:33:17.699Z,40.53
2024-03-08T18:35:45.586Z,34.67
2024-03-08T18:38:13.566Z,37.13
2024-03-08T18:40:46.193Z,38.38
2024-03-08T18:43:14.588Z,31.10
2024-03-08T18:45:43.514Z,34.65
2024-03-08T18:48:13.160Z,33.70
2024-03-08T18:50:42.284Z,41.42
2024-03-08T18:53:10.541Z,39.60
2024-03-08T18:55:38.343Z,42.58
2024-03-08T18:58:05.868Z,39.67
2024-03-08T19:00:40.008Z,39.75
2024-03-08T19:03:14.789Z,40.97
2024-03-08T19:05:43.322Z,38.80
2024-03-08T19:08:15.210Z,38.60
2024-03-08T19:10:44.542Z,38.35
2024-03-08T19:13:15.283Z,37.05
2024-03-08T19:15:43.630Z,42.58
2024-03-08T19:18:12.419Z,35.38
2024-03-08T19:20:40.148Z,40.33
2024-03-08T19:23:10.791Z,46.75
2024-03-08T19:25:42.796Z,40.03
2024-03-08T19:28:14.641Z,37.17
2024-03-08T19:30:43.141Z,39.03
2024-03-08T19:33:14.026Z,31.77
2024-03-08T19:35:42.416Z,38.28
2024-03-08T19:38:16.906Z,46.35
2024-03-08T19:40:46.115Z,39.35
2024-03-08T19:43:16.873Z,52.65
2024-03-08T19:45:45.263Z,52.60
2024-03-08T19:48:18.369Z,33.10
2024-03-08T19:50:47.591Z,45.70
2024-03-08T19:53:18.118Z,40.03
2024-03-08T19:55:54.172Z,45.60
2024-03-08T19:58:23.333Z,39.38
2024-03-08T20:00:51.374Z,36.35
2024-03-08T20:03:26.394Z,41.65
2024-03-08T20:05:56.819Z,42.03
2024-03-08T20:08:29.446Z,36.92
2024-03-08T20:10:59.680Z,33.92
2024-03-08T20:13:26.973Z,35.80
2024-03-08T20:15:55.185Z,40.75
2024-03-08T20:18:27.908Z,42.08
2024-03-08T20:20:57.147Z,44.13
2024-03-08T20:23:25.243Z,43.60
2024-03-08T20:25:52.875Z,43.88
2024-03-08T20:28:20.375Z,44.58
2024-03-08T20:30:48.448Z,50.55
2024-03-08T20:33:17.381Z,44.55
2024-03-08T20:35:51.311Z,38.92
2024-03-08T20:38:22.704Z,42.08
2024-03-08T20:40:51.956Z,48.08
2024-03-08T20:43:22.857Z,40.53
2024-03-08T20:45:51.192Z,36.58
2024-03-08T20:48:21.522Z,36.05
2024-03-08T20:50:50.955Z,42.72
2024-03-08T20:53:18.779Z,35.30
2024-03-08T20:55:49.230Z,37.28
2024-03-08T20:58:18.169Z,34.70
2024-03-08T21:00:55.691Z,38.63
2024-03-08T21:03:25.778Z,37.05
2024-03-08T21:05:56.659Z,42.00
2024-03-08T21:08:30.388Z,35.95
2024-03-08T21:10:58.986Z,36.85
2024-03-08T21:13:27.686Z,43.63
2024-03-08T21:15:56.645Z,41.88
2024-03-08T21:18:26.631Z,37.13
2024-03-08T21:20:54.330Z,34.20
2024-03-08T21:23:21.697Z,36.00
2024-03-08T21:25:49.378Z,45.97
2024-03-08T21:28:19.236Z,40.20
2024-03-08T21:30:49.227Z,35.17
2024-03-08T21:33:16.665Z,36.90
2024-03-08T21:35:44.015Z,42.22
2024-03-08T21:38:12.358Z,37.40
2024-03-08T21:40:57.164Z,41.25
2024-03-08T21:43:30.707Z,40.72
2024-03-08T21:45:58.403Z,34.13
2024-03-08T21:48:27.404Z,39.42
2024-03-08T21:50:56.389Z,32.65
2024-03-08T21:53:30.574Z,41.78
2024-03-08T21:56:02.543Z,40.95
2024-03-08T21:58:29.997Z,33.88
2024-03-08T22:00:57.373Z,38.28
2024-03-08T22:03:28.591Z,42.05
2024-03-08T22:05:57.620Z,39.70
2024-03-08T22:08:25.467Z,37.28
2024-03-08T22:10:53.653Z,36.25
2024-03-08T22:13:21.116Z,36.20
2024-03-08T22:15:50.603Z,40.17
2024-03-08T22:18:19.004Z,32.55
2024-03-08T22:20:47.304Z,38.83
2024-03-08T22:23:17.991Z,34.13
2024-03-08T22:25:47.490Z,37.33
2024-03-08T22:28:19.019Z,41.33
2024-03-08T22:30:48.144Z,39.88
2024-03-08T22:33:15.557Z,31.33
2024-03-08T22:35:43.612Z,43.13
2024-03-08T22:38:12.996Z,36.83
2024-03-08T22:40:40.361Z,36.72
2024-03-08T22:43:08.151Z,35.08
2024-03-08T22:45:35.680Z,34.75
2024-03-08T22:48:05.298Z,41.30
2024-03-08T22:50:34.209Z,30.05
2024-03-08T22:53:02.557Z,38.47
2024-03-08T22:55:30.126Z,35.38
2024-03-08T22:57:57.466Z,37.80
2024-03-08T23:00:25.351Z,36.70
2024-03-08T23:02:53.856Z,32.53
2024-03-08T23:05:21.145Z,36.70
2024-03-08T23:07:48.396Z,33.58
2024-03-08T23:10:16.700Z,33.72
2024-03-08T23:12:47.094Z,34.00
2024-03-08T23:15:16.069Z,30.63
2024-03-08T23:17:53.603Z,35.78
2024-03-08T23:20:21.746Z,39.20
2024-03-08T23:22:51.481Z,38.15
2024-03-08T23:25:24.900Z,33.88
2024-03-08T23:27:54.497Z,44.30
2024-03-08T23:30:25.490Z,38.67
2024-03-08T23:32:54.793Z,35.22
2024-03-08T23:35:22.699Z,35.13
2024-03-08T23:37:51.522Z,34.58
2024-03-08T23:40:21.432Z,36.88
2024-03-08T23:42:52.376Z,39.85
2024-03-08T23:45:23.812Z,35.25
2024-03-08T23:47:56.168Z,31.60
2024-03-08T23:50:31.323Z,41.78
2024-03-08T23:53:01.587Z,34.80
2024-03-08T23:55:31.158Z,43.20
2024-03-08T23:58:01.242Z,37.25
